createdAt,value
2018-12-17T00:00:32.811Z,99.99
2018-12-17T00:01:13.225Z,99.99
2018-12-17T00:01:53.590Z,99.99
2018-12-17T00:02:33.970Z,99.99
2018-12-17T00:03:14.358Z,99.99
2018-12-17T00:03:54.748Z,99.99
2018-12-17T00:04:35.104Z,99.99
2018-12-17T00:05:15.497Z,99.99
2018-12-17T00:05:55.892Z,99.99
2018-12-17T00:06:36.286Z,99.99
2018-12-17T00:07:16.686Z,99.99
2018-12-17T00:07:57.054Z,99.99
2018-12-17T00:08:37.422Z,99.99
2018-12-17T00:09:17.806Z,99.99
2018-12-17T00:09:58.164Z,99.99
2018-12-17T00:10:38.575Z,99.99
2018-12-17T00:11:18.960Z,99.99
2018-12-17T00:11:59.357Z,99.99
2018-12-17T00:12:39.740Z,99.99
2018-12-17T00:14:32.567Z,99.99
2018-12-17T00:15:13.237Z,99.99
2018-12-17T00:15:53.644Z,99.99
2018-12-17T00:16:34.047Z,99.99
2018-12-17T00:17:14.515Z,99.99
2018-12-17T00:17:54.943Z,99.99
2018-12-17T00:18:35.349Z,99.99
2018-12-17T00:19:15.746Z,99.99
2018-12-17T00:19:56.073Z,99.99
2018-12-17T00:20:36.517Z,99.99
2018-12-17T00:21:16.866Z,99.99
2018-12-17T00:22:06.135Z,99.99
2018-12-17T00:22:46.540Z,99.99
2018-12-17T00:23:26.949Z,99.99
2018-12-17T00:24:07.303Z,99.99
2018-12-17T00:24:47.700Z,99.99
2018-12-17T00:25:28.066Z,99.99
2018-12-17T00:26:08.526Z,99.99
2018-12-17T00:26:48.834Z,99.99
2018-12-17T00:27:29.233Z,99.99
2018-12-17T00:28:09.643Z,99.99
2018-12-17T00:28:49.988Z,99.99
2018-12-17T00:29:30.389Z,99.99
2018-12-17T00:30:10.812Z,99.99
2018-12-17T00:30:51.201Z,99.99
2018-12-17T00:31:31.602Z,99.99
2018-12-17T00:32:12.000Z,99.99
2018-12-17T00:32:52.385Z,99.99
2018-12-17T00:33:32.845Z,99.99
2018-12-17T00:34:13.166Z,99.99
2018-12-17T00:34:53.564Z,99.99
2018-12-17T00:35:33.969Z,99.99
2018-12-17T00:36:14.355Z,99.99
2018-12-17T00:36:54.753Z,99.53
2018-12-17T00:37:35.116Z,99.91
2018-12-17T00:38:15.552Z,99.99
2018-12-17T00:38:55.917Z,99.44
2018-12-17T00:39:36.367Z,99.99
2018-12-17T00:40:16.734Z,99.99
2018-12-17T00:40:57.103Z,99.99
2018-12-17T00:41:37.498Z,99.99
2018-12-17T00:42:17.886Z,99.99
2018-12-17T00:42:58.262Z,99.99
2018-12-17T00:43:38.612Z,99.99
2018-12-17T00:44:19.025Z,99.99
2018-12-17T00:44:59.457Z,99.72
2018-12-17T00:45:39.845Z,99.44
2018-12-17T00:46:20.210Z,99.72
2018-12-17T00:47:00.579Z,99.99
2018-12-17T00:47:40.986Z,99.63
2018-12-17T00:48:21.393Z,99.72
2018-12-17T00:49:01.719Z,99.72
2018-12-17T00:49:42.122Z,99.82
2018-12-17T00:50:22.486Z,99.99
2018-12-17T00:51:02.884Z,99.72
2018-12-17T00:51:43.272Z,99.72
2018-12-17T00:52:23.703Z,99.82
2018-12-17T00:53:04.085Z,98.87
2018-12-17T00:53:44.506Z,99.44
2018-12-17T00:54:24.953Z,99.25
2018-12-17T00:55:05.369Z,99.44
2018-12-17T00:55:45.759Z,99.82
2018-12-17T00:56:26.186Z,99.91
2018-12-17T00:57:06.560Z,99.82
2018-12-17T00:57:46.973Z,99.44
2018-12-17T00:58:27.344Z,99.68
2018-12-17T00:59:07.733Z,98.25
2018-12-17T00:59:48.201Z,98.82
2018-12-17T01:00:28.575Z,98.11
2018-12-17T01:01:08.883Z,98.25
2018-12-17T01:01:49.291Z,98.54
2018-12-17T01:02:29.696Z,98.25
2018-12-17T01:03:11.043Z,98.44
2018-12-17T01:03:51.418Z,98.58
2018-12-17T01:04:31.795Z,98.54
2018-12-17T01:05:12.174Z,98.58
2018-12-17T01:05:52.599Z,98.49
2018-12-17T01:06:32.993Z,98.87
2018-12-17T01:07:13.409Z,98.58
2018-12-17T01:07:53.806Z,98.58
2018-12-17T01:08:34.238Z,98.68
2018-12-17T01:09:14.647Z,98.39
2018-12-17T01:09:55.050Z,98.49
2018-12-17T01:10:35.471Z,98.58
2018-12-17T01:11:15.877Z,97.73
2018-12-17T01:11:56.290Z,97.54
2018-12-17T01:12:36.710Z,97.26
2018-12-17T01:13:17.108Z,97.16
2018-12-17T01:13:57.487Z,97.12
2018-12-17T01:14:37.878Z,97.88
2018-12-17T01:15:18.287Z,96.92
2018-12-17T01:15:58.628Z,97.4
2018-12-17T01:16:39.037Z,95.93
2018-12-17T01:17:19.438Z,96.97
2018-12-17T01:17:59.779Z,97.35
2018-12-17T01:18:40.247Z,97.88
2018-12-17T01:19:20.634Z,98.07
2018-12-17T01:20:01.049Z,98.73
2018-12-17T01:20:41.411Z,98.07
2018-12-17T01:21:21.829Z,97.97
2018-12-17T01:22:02.211Z,96.45
2018-12-17T01:22:42.622Z,95.69
2018-12-17T01:23:23.062Z,94.46
2018-12-17T01:24:03.446Z,94.37
2018-12-17T01:24:43.883Z,93.32
2018-12-17T01:25:24.284Z,92.42
2018-12-17T01:26:04.686Z,92.04
2018-12-17T01:26:45.036Z,90.71
2018-12-17T01:27:25.445Z,89.86
2018-12-17T01:28:05.876Z,89.48
2018-12-17T01:28:46.207Z,89.67
2018-12-17T01:29:26.612Z,89.1
2018-12-17T01:30:07.001Z,88.2
2018-12-17T01:30:47.413Z,87.82
2018-12-17T01:31:27.795Z,86.91
2018-12-17T01:32:08.209Z,86.2
2018-12-17T01:32:48.588Z,86.2
2018-12-17T01:33:28.999Z,85.53
2018-12-17T01:34:09.361Z,85.16
2018-12-17T01:34:49.789Z,85.16
2018-12-17T01:35:30.153Z,84.68
2018-12-17T01:36:10.551Z,85.35
2018-12-17T01:36:50.970Z,85.63
2018-12-17T01:37:31.335Z,86.3
2018-12-17T01:38:11.710Z,86.39
2018-12-17T01:38:52.119Z,87.3
2018-12-17T01:39:32.488Z,87.53
2018-12-17T01:40:12.867Z,87.3
2018-12-17T01:40:53.254Z,87.68
2018-12-17T01:41:33.627Z,87.3
2018-12-17T01:42:14.034Z,87.2
2018-12-17T01:42:54.396Z,86.44
2018-12-17T01:43:34.839Z,87.77
2018-12-17T01:44:15.214Z,88.06
2018-12-17T01:44:55.614Z,87.68
2018-12-17T01:45:36.020Z,87.77
2018-12-17T01:46:16.452Z,87.11
2018-12-17T01:46:56.803Z,87.68
2018-12-17T01:47:37.376Z,88.24
2018-12-17T01:48:17.695Z,89
2018-12-17T01:48:58.098Z,89.67
2018-12-17T01:49:38.490Z,89.39
2018-12-17T01:50:18.896Z,90.71
2018-12-17T01:50:59.298Z,90.71
2018-12-17T01:51:39.713Z,91.33
2018-12-17T01:52:20.152Z,91.05
2018-12-17T01:53:00.524Z,91.52
2018-12-17T01:53:40.961Z,92.18
2018-12-17T01:54:21.354Z,92.47
2018-12-17T01:55:01.754Z,93.23
2018-12-17T01:55:42.148Z,93.23
2018-12-17T01:56:22.565Z,94.18
2018-12-17T01:57:02.917Z,94.65
2018-12-17T01:59:00.834Z,95.31
2018-12-17T01:59:41.117Z,95.6
2018-12-17T02:00:21.531Z,95.41
2018-12-17T02:01:01.969Z,96.55
2018-12-17T02:01:42.316Z,96.17
2018-12-17T02:02:22.699Z,96.17
2018-12-17T02:03:03.101Z,97.4
2018-12-17T02:03:43.514Z,97.21
2018-12-17T02:04:23.887Z,97.12
2018-12-17T02:05:04.273Z,96.92
2018-12-17T02:05:44.695Z,97.88
2018-12-17T02:06:25.100Z,98.16
2018-12-17T02:07:05.504Z,98.68
2018-12-17T02:07:45.856Z,99.44
2018-12-17T02:08:26.259Z,99.72
2018-12-17T02:09:06.649Z,99.99
2018-12-17T02:09:47.114Z,99.63
2018-12-17T02:10:27.517Z,99.99
2018-12-17T02:11:07.908Z,99.99
2018-12-17T02:11:48.304Z,99.99
2018-12-17T02:12:28.681Z,99.99
2018-12-17T02:13:09.108Z,99.91
2018-12-17T02:13:49.492Z,99.99
2018-12-17T02:14:29.872Z,99.99
2018-12-17T02:15:10.298Z,99.44
2018-12-17T02:15:50.709Z,99.91
2018-12-17T02:16:31.092Z,99.82
2018-12-17T02:17:11.484Z,99.49
2018-12-17T02:17:51.856Z,98.73
2018-12-17T02:18:32.254Z,98.07
2018-12-17T02:19:12.652Z,97.88
2018-12-17T02:19:53.029Z,98.25
2018-12-17T02:20:33.408Z,97.12
2018-12-17T02:21:13.808Z,96.17
2018-12-17T02:21:54.246Z,95.88
2018-12-17T02:22:34.627Z,96.17
2018-12-17T02:23:14.998Z,96.08
2018-12-17T02:23:55.357Z,95.69
2018-12-17T02:24:35.736Z,94.74
2018-12-17T02:25:16.137Z,94.56
2018-12-17T02:25:56.521Z,94.65
2018-12-17T02:26:36.912Z,94.84
2018-12-17T02:27:17.316Z,94.93
2018-12-17T02:27:59.291Z,95.5
2018-12-17T02:28:39.803Z,94.93
2018-12-17T02:29:20.347Z,95.5
2018-12-17T02:30:01.281Z,95.79
2018-12-17T02:30:41.658Z,96.17
2018-12-17T02:31:22.080Z,96.36
2018-12-17T02:32:02.473Z,96.92
2018-12-17T02:32:42.876Z,96.17
2018-12-17T02:33:23.340Z,95.98
2018-12-17T02:34:03.660Z,97.12
2018-12-17T02:34:44.057Z,97.21
2018-12-17T02:36:41.950Z,98.02
2018-12-17T02:37:22.344Z,98.11
2018-12-17T02:38:02.726Z,98.58
2018-12-17T02:38:43.126Z,98.49
2018-12-17T02:39:23.588Z,99.63
2018-12-17T02:40:03.971Z,99.06
2018-12-17T02:40:44.326Z,99.06
2018-12-17T02:41:24.705Z,99.25
2018-12-17T02:42:05.113Z,99.53
2018-12-17T02:42:45.540Z,99.44
2018-12-17T02:43:25.915Z,99.99
2018-12-17T02:44:06.295Z,99.72
2018-12-17T02:44:46.738Z,99.99
2018-12-17T02:45:27.058Z,99.99
2018-12-17T02:46:07.431Z,99.91
2018-12-17T02:46:47.830Z,99.99
2018-12-17T02:47:28.216Z,99.99
2018-12-17T02:48:08.633Z,99.99
2018-12-17T02:48:49.016Z,99.99
2018-12-17T02:49:29.506Z,99.99
2018-12-17T02:50:09.867Z,99.99
2018-12-17T02:50:50.254Z,99.99
2018-12-17T02:51:30.656Z,99.99
2018-12-17T02:52:11.091Z,99.99
2018-12-17T02:52:51.470Z,99.99
2018-12-17T02:53:33.365Z,99.99
2018-12-17T02:54:13.800Z,99.99
2018-12-17T02:54:54.173Z,99.99
2018-12-17T02:55:34.623Z,99.99
2018-12-17T02:56:14.973Z,99.99
2018-12-17T02:56:55.367Z,99.99
2018-12-17T02:57:35.750Z,99.99
2018-12-17T02:58:16.155Z,99.99
2018-12-17T02:58:56.585Z,99.99
2018-12-17T02:59:36.979Z,99.99
2018-12-17T03:00:17.337Z,99.99
2018-12-17T03:00:57.730Z,99.99
2018-12-17T03:01:38.129Z,99.99
2018-12-17T03:02:18.498Z,99.99
2018-12-17T03:02:58.914Z,99.99
2018-12-17T03:03:39.318Z,99.99
2018-12-17T03:04:19.729Z,99.99
2018-12-17T03:05:00.151Z,99.99
2018-12-17T03:05:40.556Z,99.99
2018-12-17T03:06:20.984Z,99.99
2018-12-17T03:07:01.416Z,99.99
2018-12-17T03:07:41.814Z,99.99
2018-12-17T03:08:22.219Z,99.99
2018-12-17T03:09:02.662Z,99.99
2018-12-17T03:09:43.055Z,99.99
2018-12-17T03:10:23.468Z,99.99
2018-12-17T03:11:03.873Z,99.99
2018-12-17T03:11:44.267Z,99.99
2018-12-17T03:12:24.674Z,99.99
2018-12-17T03:13:05.083Z,99.99
2018-12-17T03:13:45.475Z,99.99
2018-12-17T03:14:25.891Z,99.99
2018-12-17T03:15:06.317Z,99.99
2018-12-17T03:15:46.717Z,99.99
2018-12-17T03:16:27.123Z,99.99
2018-12-17T03:17:07.514Z,99.99
2018-12-17T03:17:47.916Z,99.99
2018-12-17T03:18:28.336Z,99.99
2018-12-17T03:19:08.732Z,99.99
2018-12-17T03:19:49.133Z,99.99
2018-12-17T03:20:29.555Z,99.99
2018-12-17T03:21:09.930Z,99.99
2018-12-17T03:21:50.355Z,99.99
2018-12-17T03:22:30.731Z,99.99
2018-12-17T03:23:11.125Z,99.99
2018-12-17T03:23:51.531Z,99.99
2018-12-17T03:24:31.955Z,99.99
2018-12-17T03:25:12.351Z,99.99
2018-12-17T03:25:52.746Z,99.99
2018-12-17T03:26:33.168Z,99.99
2018-12-17T03:27:13.537Z,99.99
2018-12-17T03:27:53.944Z,99.99
2018-12-17T03:28:34.387Z,99.99
2018-12-17T03:29:14.679Z,99.99
2018-12-17T03:29:55.092Z,99.99
2018-12-17T03:30:35.511Z,99.99
2018-12-17T03:31:15.898Z,99.99
2018-12-17T03:31:56.267Z,99.99
2018-12-17T03:32:36.680Z,99.99
2018-12-17T03:33:17.084Z,99.99
2018-12-17T03:33:57.483Z,99.99
2018-12-17T03:34:37.874Z,99.99
2018-12-17T03:35:18.293Z,99.99
2018-12-17T03:35:58.704Z,99.99
2018-12-17T03:36:39.168Z,99.99
2018-12-17T03:37:19.475Z,99.99
2018-12-17T03:37:59.874Z,99.99
2018-12-17T03:38:40.334Z,99.99
2018-12-17T03:39:20.675Z,99.99
2018-12-17T03:40:01.039Z,99.99
2018-12-17T03:40:41.458Z,99.99
2018-12-17T03:41:22.726Z,99.99
2018-12-17T03:42:03.275Z,99.99
2018-12-17T03:42:43.625Z,99.99
2018-12-17T03:43:24.002Z,99.99
2018-12-17T03:44:04.419Z,99.99
2018-12-17T03:44:44.791Z,99.99
2018-12-17T03:45:25.139Z,99.99
2018-12-17T03:46:05.515Z,99.99
2018-12-17T03:46:45.894Z,99.99
2018-12-17T03:47:26.311Z,99.99
2018-12-17T03:48:06.688Z,99.99
2018-12-17T03:48:47.028Z,99.99
2018-12-17T03:49:27.490Z,99.99
2018-12-17T03:50:07.791Z,99.99
2018-12-17T03:50:48.215Z,99.99
2018-12-17T03:51:28.599Z,99.99
2018-12-17T03:52:08.981Z,99.99
2018-12-17T03:52:49.430Z,99.99
2018-12-17T03:53:29.796Z,99.99
2018-12-17T03:54:11.093Z,99.99
2018-12-17T03:54:51.457Z,99.99
2018-12-17T03:55:31.852Z,99.99
2018-12-17T03:56:12.246Z,99.99
2018-12-17T03:56:52.648Z,99.99
2018-12-17T03:57:32.989Z,99.99
2018-12-17T03:58:13.429Z,99.99
2018-12-17T03:58:59.143Z,99.99
2018-12-17T03:59:34.124Z,99.99
2018-12-17T04:00:14.571Z,99.99
2018-12-17T04:00:54.909Z,99.99
2018-12-17T04:01:35.293Z,99.99
2018-12-17T04:02:15.685Z,99.99
2018-12-17T04:02:56.072Z,99.99
2018-12-17T04:03:36.454Z,99.99
2018-12-17T04:04:16.847Z,99.99
2018-12-17T04:04:57.235Z,99.99
2018-12-17T04:05:37.624Z,99.99
2018-12-17T04:06:18.016Z,99.99
2018-12-17T04:06:58.393Z,99.99
2018-12-17T04:07:38.784Z,99.99
2018-12-17T04:08:19.610Z,99.99
2018-12-17T04:08:59.928Z,99.99
2018-12-17T04:09:40.344Z,99.99
2018-12-17T04:10:20.778Z,99.99
2018-12-17T04:11:01.077Z,99.99
2018-12-17T04:11:41.517Z,99.99
2018-12-17T04:12:21.931Z,99.99
2018-12-17T04:13:02.396Z,99.99
2018-12-17T04:13:42.740Z,99.99
2018-12-17T04:14:23.174Z,99.99
2018-12-17T04:15:03.533Z,99.99
2018-12-17T04:15:44.070Z,99.99
2018-12-17T04:16:24.330Z,99.99
2018-12-17T04:17:04.698Z,99.99
2018-12-17T04:17:45.108Z,99.99
2018-12-17T04:18:25.500Z,99.99
2018-12-17T04:19:05.921Z,99.99
2018-12-17T04:19:48.121Z,99.99
2018-12-17T04:20:28.494Z,99.99
2018-12-17T04:21:08.848Z,99.99
2018-12-17T04:21:49.236Z,99.99
2018-12-17T04:22:30.583Z,99.99
2018-12-17T04:23:10.983Z,99.99
2018-12-17T04:23:51.387Z,99.99
2018-12-17T04:24:31.815Z,99.99
2018-12-17T04:25:12.149Z,99.99
2018-12-17T04:25:52.597Z,99.99
2018-12-17T04:26:32.929Z,99.99
2018-12-17T04:27:13.332Z,99.99
2018-12-17T05:06:48.347Z,99.99
2018-12-17T05:07:31.081Z,99.99
2018-12-17T05:08:14.141Z,99.99
2018-12-17T05:08:54.480Z,99.99
2018-12-17T05:09:34.919Z,99.99
2018-12-17T05:10:15.341Z,99.99
2018-12-17T05:10:55.648Z,99.99
2018-12-17T05:11:36.039Z,99.99
2018-12-17T05:12:16.447Z,99.99
2018-12-17T05:12:56.789Z,99.99
2018-12-17T05:13:37.227Z,99.99
2018-12-17T05:14:17.681Z,99.99
2018-12-17T05:14:57.996Z,99.99
2018-12-17T05:15:38.772Z,99.99
2018-12-17T05:16:19.265Z,99.99
2018-12-17T05:16:59.674Z,99.99
2018-12-17T05:17:41.277Z,99.99
2018-12-17T05:18:21.686Z,99.99
2018-12-17T05:19:02.164Z,99.99
2018-12-17T05:19:42.621Z,99.99
2018-12-17T05:20:25.993Z,99.99
2018-12-17T05:21:06.343Z,99.99
2018-12-17T05:21:47.674Z,99.99
2018-12-17T05:22:28.005Z,99.99
2018-12-17T05:23:08.421Z,99.99
2018-12-17T05:23:48.803Z,99.99
2018-12-17T05:24:29.218Z,99.99
2018-12-17T05:25:10.027Z,99.99
2018-12-17T05:25:50.415Z,99.99
2018-12-17T05:26:30.806Z,99.99
2018-12-17T05:27:11.215Z,99.99
2018-12-17T05:27:51.629Z,99.99
2018-12-17T05:28:32.066Z,99.99
2018-12-17T05:29:12.481Z,99.99
2018-12-17T05:29:52.937Z,99.99
2018-12-17T05:30:34.145Z,99.99
2018-12-17T05:31:14.555Z,99.99
2018-12-17T05:31:54.926Z,99.99
2018-12-17T05:32:35.339Z,99.99
2018-12-17T05:33:19.396Z,99.99
2018-12-17T05:33:59.898Z,99.99
2018-12-17T05:34:40.218Z,99.99
2018-12-17T05:35:21.543Z,99.99
2018-12-17T05:36:02.039Z,99.99
2018-12-17T05:36:44.327Z,99.99
2018-12-17T05:37:24.443Z,99.99
2018-12-17T05:38:04.790Z,99.99
2018-12-17T05:38:45.222Z,99.99
2018-12-17T05:39:25.568Z,99.99
2018-12-17T05:40:07.809Z,99.99
2018-12-17T05:40:49.320Z,99.99
2018-12-17T05:41:30.671Z,99.99
2018-12-17T05:42:19.399Z,99.99
2018-12-17T05:42:59.798Z,99.99
2018-12-17T05:43:43.034Z,99.99
2018-12-17T05:44:32.406Z,99.99
2018-12-17T05:45:13.725Z,99.99
2018-12-17T05:45:57.974Z,99.99
2018-12-17T05:46:39.383Z,99.99
2018-12-17T05:47:19.714Z,99.99
2018-12-17T05:48:00.207Z,99.99
2018-12-17T05:48:40.675Z,99.99
2018-12-17T05:49:21.061Z,99.99
2018-12-17T05:50:01.491Z,99.99
2018-12-17T05:50:41.915Z,99.99
2018-12-17T05:51:22.372Z,99.99
2018-12-17T05:52:03.745Z,99.99
2018-12-17T05:52:44.097Z,99.99
2018-12-17T05:53:25.587Z,99.99
2018-12-17T05:54:05.975Z,99.99
2018-12-17T05:54:46.337Z,99.99
2018-12-17T05:55:30.484Z,99.99
2018-12-17T05:56:28.282Z,99.99
2018-12-17T05:57:08.718Z,99.99
2018-12-17T05:57:49.128Z,99.99
2018-12-17T05:58:29.570Z,99.99
2018-12-17T05:59:11.396Z,99.99
2018-12-17T05:59:53.451Z,99.99
2018-12-17T06:00:33.938Z,99.99
2018-12-17T06:01:14.347Z,99.99
2018-12-17T06:01:54.731Z,99.99
2018-12-17T06:02:36.828Z,99.99
2018-12-17T06:03:17.292Z,99.99
2018-12-17T06:03:57.691Z,99.99
2018-12-17T06:04:38.078Z,99.99
2018-12-17T06:05:19.429Z,99.99
2018-12-17T06:06:00.355Z,99.99
2018-12-17T06:06:40.762Z,99.99
2018-12-17T06:07:21.132Z,99.99
2018-12-17T06:08:01.534Z,99.99
2018-12-17T06:08:44.240Z,99.99
2018-12-17T06:09:24.561Z,99.99
2018-12-17T06:10:06.776Z,99.99
2018-12-17T06:10:47.167Z,99.99
2018-12-17T06:11:27.772Z,99.99
2018-12-17T06:12:10.027Z,99.99
2018-12-17T06:12:52.361Z,99.99
2018-12-17T06:13:32.791Z,99.99
2018-12-17T06:14:16.848Z,99.99
2018-12-17T06:16:16.617Z,99.99
2018-12-17T06:16:57.027Z,99.99
2018-12-17T06:17:37.437Z,99.99
2018-12-17T06:18:17.850Z,99.99
2018-12-17T06:18:58.229Z,99.99
2018-12-17T06:19:38.638Z,99.99
2018-12-17T06:21:31.843Z,99.99
2018-12-17T06:22:12.352Z,99.99
2018-12-17T06:22:52.804Z,99.99
2018-12-17T06:23:35.604Z,99.99
2018-12-17T06:24:15.987Z,99.99
2018-12-17T06:24:57.302Z,99.99
2018-12-17T06:25:37.988Z,99.99
2018-12-17T06:26:18.375Z,99.99
2018-12-17T06:26:58.738Z,99.99
2018-12-17T06:27:39.215Z,99.99
2018-12-17T06:29:26.381Z,99.99
2018-12-17T06:30:06.768Z,99.99
2018-12-17T06:30:47.195Z,99.99
2018-12-17T06:31:27.546Z,99.99
2018-12-17T06:32:07.931Z,99.99
2018-12-17T06:32:48.329Z,99.99
2018-12-17T06:33:28.809Z,99.99
2018-12-17T06:34:09.173Z,99.99
2018-12-17T06:34:49.632Z,99.99
2018-12-17T06:35:30.007Z,99.99
2018-12-17T06:36:10.334Z,99.99
2018-12-17T06:36:50.746Z,99.99
2018-12-17T06:37:31.127Z,99.99
2018-12-17T06:38:11.524Z,99.99
2018-12-17T06:38:51.902Z,99.99
2018-12-17T06:39:32.282Z,99.99
2018-12-17T06:40:12.677Z,99.99
2018-12-17T06:40:53.062Z,99.99
2018-12-17T06:41:33.479Z,99.99
2018-12-17T06:42:13.877Z,99.99
2018-12-17T06:42:54.298Z,99.99
2018-12-17T06:43:34.672Z,99.99
2018-12-17T06:44:15.064Z,99.99
2018-12-17T06:44:55.461Z,99.99
2018-12-17T06:45:35.878Z,99.99
2018-12-17T06:46:16.249Z,99.99
2018-12-17T06:46:56.719Z,99.99
2018-12-17T06:47:37.115Z,99.99
2018-12-17T06:48:17.604Z,99.99
2018-12-17T06:48:57.987Z,99.99
2018-12-17T06:49:38.368Z,99.99
2018-12-17T06:50:18.744Z,99.99
2018-12-17T06:50:59.165Z,99.99
2018-12-17T06:51:39.674Z,99.99
2018-12-17T06:52:20.113Z,99.99
2018-12-17T06:53:00.478Z,99.99
2018-12-17T06:53:40.880Z,99.99
2018-12-17T06:54:21.289Z,99.99
2018-12-17T06:55:01.680Z,99.99
2018-12-17T06:55:42.263Z,99.99
2018-12-17T06:56:22.734Z,99.99
2018-12-17T06:57:03.151Z,99.99
2018-12-17T06:57:43.614Z,99.99
2018-12-17T06:58:24.021Z,99.99
2018-12-17T06:59:04.441Z,99.99
2018-12-17T06:59:44.858Z,99.99
2018-12-17T07:00:25.249Z,99.99
2018-12-17T07:01:05.679Z,99.99
2018-12-17T07:01:46.104Z,99.99
2018-12-17T07:02:26.472Z,99.99
2018-12-17T07:03:06.884Z,99.99
2018-12-17T07:03:47.250Z,99.99
2018-12-17T07:04:27.634Z,99.99
2018-12-17T07:06:19.963Z,99.99
2018-12-17T07:07:00.394Z,99.99
2018-12-17T07:07:40.817Z,99.99
2018-12-17T07:08:21.242Z,99.99
2018-12-17T07:09:01.602Z,99.99
2018-12-17T07:09:42.012Z,99.99
2018-12-17T07:10:22.405Z,99.99
2018-12-17T07:11:02.810Z,99.99
2018-12-17T07:11:43.237Z,99.99
2018-12-17T07:12:23.615Z,99.99
2018-12-17T07:13:04.270Z,99.99
2018-12-17T07:13:44.651Z,99.99
2018-12-17T07:16:02.299Z,99.99
2018-12-17T07:16:42.697Z,99.99
2018-12-17T07:17:23.081Z,99.99
2018-12-17T07:18:03.507Z,99.99
2018-12-17T07:18:43.908Z,99.99
2018-12-17T07:19:24.351Z,99.99
2018-12-17T07:20:04.810Z,99.99
2018-12-17T07:20:45.143Z,99.99
2018-12-17T07:21:25.548Z,99.99
2018-12-17T07:22:06.021Z,99.99
2018-12-17T07:22:46.424Z,99.99
2018-12-17T07:23:26.802Z,99.99
2018-12-17T07:24:07.246Z,99.99
2018-12-17T07:24:48.049Z,99.99
2018-12-17T07:25:28.429Z,99.99
2018-12-17T07:26:08.980Z,99.99
2018-12-17T07:26:49.403Z,99.99
2018-12-17T07:27:29.808Z,99.99
2018-12-17T07:28:10.203Z,99.99
2018-12-17T07:28:50.629Z,99.99
2018-12-17T07:29:31.016Z,99.99
2018-12-17T07:30:11.470Z,99.99
2018-12-17T07:30:52.293Z,99.99
2018-12-17T07:31:32.748Z,99.99
2018-12-17T07:32:13.183Z,99.99
2018-12-17T07:32:53.618Z,99.99
2018-12-17T07:33:33.988Z,99.99
2018-12-17T07:34:14.438Z,99.99
2018-12-17T07:34:54.933Z,99.99
2018-12-17T07:35:35.259Z,99.99
2018-12-17T07:36:15.670Z,99.99
2018-12-17T07:36:56.102Z,99.99
2018-12-17T07:37:36.448Z,99.99
2018-12-17T07:38:16.847Z,99.99
2018-12-17T07:38:57.281Z,99.99
2018-12-17T07:40:49.641Z,99.99
2018-12-17T07:41:30.988Z,99.99
2018-12-17T07:42:11.468Z,99.99
2018-12-17T07:42:52.853Z,99.99
2018-12-17T07:43:34.481Z,99.99
2018-12-17T07:44:14.183Z,99.99
2018-12-17T07:44:54.616Z,99.99
2018-12-17T07:45:36.058Z,99.99
2018-12-17T07:46:16.552Z,99.99
2018-12-17T07:46:58.650Z,99.99
2018-12-17T07:47:39.008Z,99.99
2018-12-17T07:48:21.439Z,99.99
2018-12-17T07:49:07.899Z,99.99
2018-12-17T07:49:48.395Z,99.99
2018-12-17T07:50:28.948Z,99.99
2018-12-17T07:51:09.444Z,99.99
2018-12-17T07:51:49.843Z,99.99
2018-12-17T07:52:30.243Z,99.99
2018-12-17T07:53:10.697Z,99.99
2018-12-17T07:53:51.251Z,99.99
2018-12-17T07:54:31.923Z,99.99
2018-12-17T07:55:12.354Z,99.99
2018-12-17T07:55:52.858Z,99.99
2018-12-17T07:56:33.230Z,99.99
2018-12-17T07:57:13.665Z,99.99
2018-12-17T07:57:54.147Z,99.99
2018-12-17T07:58:34.570Z,99.99
2018-12-17T07:59:15.054Z,99.99
2018-12-17T07:59:56.778Z,99.99
2018-12-17T08:00:36.354Z,99.99
2018-12-17T08:01:17.057Z,99.99
2018-12-17T08:01:57.291Z,99.99
2018-12-17T08:02:37.910Z,99.99
2018-12-17T08:04:31.284Z,99.99
2018-12-17T08:05:11.198Z,99.99
2018-12-17T08:05:51.754Z,99.99
2018-12-17T08:06:33.324Z,99.99
2018-12-17T08:07:13.914Z,99.99
2018-12-17T08:07:54.350Z,99.99
2018-12-17T08:08:35.474Z,99.99
2018-12-17T08:09:15.413Z,99.99
2018-12-17T08:09:55.834Z,99.99
2018-12-17T08:10:36.304Z,99.99
2018-12-17T08:11:16.751Z,99.99
2018-12-17T08:11:57.931Z,99.99
2018-12-17T08:12:38.436Z,99.99
2018-12-17T08:13:18.915Z,99.99
2018-12-17T08:15:31.494Z,99.99
2018-12-17T08:16:11.814Z,99.99
2018-12-17T08:16:52.177Z,99.99
2018-12-17T08:17:32.641Z,99.99
2018-12-17T08:18:13.184Z,99.99
2018-12-17T08:18:53.617Z,99.99
2018-12-17T08:19:34.108Z,99.99
2018-12-17T08:20:14.515Z,99.99
2018-12-17T08:20:54.927Z,99.99
2018-12-17T08:21:35.531Z,99.99
2018-12-17T08:22:16.039Z,99.99
2018-12-17T08:22:56.467Z,99.99
2018-12-17T08:23:36.888Z,99.99
2018-12-17T08:25:49.824Z,99.99
2018-12-17T08:26:30.594Z,99.99
2018-12-17T08:27:11.037Z,99.99
2018-12-17T08:27:51.556Z,99.99
2018-12-17T08:28:32.007Z,99.99
2018-12-17T08:29:12.454Z,99.99
2018-12-17T08:29:52.872Z,99.99
2018-12-17T08:30:33.361Z,99.99
2018-12-17T08:31:13.759Z,99.99
2018-12-17T08:31:54.408Z,99.99
2018-12-17T08:32:35.643Z,99.99
2018-12-17T08:33:15.470Z,99.99
2018-12-17T08:33:55.935Z,99.99
2018-12-17T08:34:36.436Z,99.99
2018-12-17T08:35:16.847Z,99.99
2018-12-17T08:35:57.247Z,99.99
2018-12-17T08:36:37.927Z,99.99
2018-12-17T08:37:18.570Z,99.99
2018-12-17T08:37:59.223Z,99.99
2018-12-17T08:38:39.583Z,99.99
2018-12-17T08:39:19.995Z,99.99
2018-12-17T08:40:00.392Z,99.99
2018-12-17T08:40:40.785Z,99.99
2018-12-17T08:41:21.148Z,99.99
2018-12-17T08:42:01.540Z,99.99
2018-12-17T08:42:41.996Z,99.99
2018-12-17T08:43:22.636Z,99.99
2018-12-17T08:44:04.108Z,99.99
2018-12-17T08:44:44.801Z,99.99
2018-12-17T08:45:25.884Z,99.99
2018-12-17T08:46:06.634Z,99.99
2018-12-17T08:46:47.130Z,99.99
2018-12-17T08:47:27.554Z,99.99
2018-12-17T08:48:08.310Z,99.99
2018-12-17T08:48:48.880Z,99.99
2018-12-17T08:49:30.202Z,99.99
2018-12-17T08:50:10.734Z,99.99
2018-12-17T08:50:51.176Z,99.99
2018-12-17T08:51:31.686Z,99.99
2018-12-17T08:52:12.138Z,99.99
2018-12-17T08:52:52.805Z,99.99
2018-12-17T08:53:33.342Z,99.99
2018-12-17T08:54:14.286Z,99.99
2018-12-17T08:56:06.218Z,99.99
2018-12-17T08:56:46.665Z,99.99
2018-12-17T08:57:27.067Z,99.99
2018-12-17T08:59:44.731Z,99.99
2018-12-17T09:00:25.023Z,99.99
2018-12-17T09:01:05.509Z,99.99
2018-12-17T09:01:45.904Z,99.99
2018-12-17T09:02:26.285Z,99.99
2018-12-17T09:03:06.916Z,99.99
2018-12-17T09:03:47.312Z,99.99
2018-12-17T09:04:27.829Z,99.99
2018-12-17T09:06:40.312Z,99.99
2018-12-17T09:07:20.709Z,99.99
2018-12-17T09:08:01.106Z,99.99
2018-12-17T09:08:41.569Z,99.99
2018-12-17T09:09:21.968Z,99.99
2018-12-17T09:11:34.742Z,99.99
2018-12-17T09:12:15.145Z,99.99
2018-12-17T09:12:55.610Z,99.99
2018-12-17T09:13:36.013Z,99.99
2018-12-17T09:14:17.038Z,99.99
2018-12-17T09:14:57.388Z,99.99
2018-12-17T09:15:37.855Z,99.99
2018-12-17T09:16:18.274Z,99.99
2018-12-17T09:16:59.178Z,99.99
2018-12-17T09:17:39.491Z,99.99
2018-12-17T09:18:20.040Z,99.99
2018-12-17T09:19:00.355Z,99.99
2018-12-17T09:19:41.224Z,99.99
2018-12-17T09:20:22.387Z,99.99
2018-12-17T09:21:02.696Z,99.99
2018-12-17T09:21:43.597Z,99.99
2018-12-17T09:22:24.155Z,99.99
2018-12-17T09:23:04.667Z,99.99
2018-12-17T09:23:45.017Z,99.99
2018-12-17T09:24:25.426Z,99.99
2018-12-17T09:25:05.826Z,99.99
2018-12-17T09:25:46.227Z,99.99
2018-12-17T09:26:26.749Z,99.99
2018-12-17T09:27:07.223Z,99.99
2018-12-17T09:27:47.629Z,99.99
2018-12-17T09:28:28.066Z,99.99
2018-12-17T09:29:08.458Z,99.99
2018-12-17T09:29:49.019Z,99.99
2018-12-17T09:30:29.386Z,99.99
2018-12-17T09:31:09.791Z,99.99
2018-12-17T09:31:50.196Z,99.99
2018-12-17T09:32:30.604Z,99.99
2018-12-17T09:33:10.989Z,99.99
2018-12-17T09:33:51.442Z,99.99
2018-12-17T09:34:31.821Z,99.99
2018-12-17T09:35:12.250Z,99.99
2018-12-17T09:35:52.754Z,99.99
2018-12-17T09:36:35.118Z,99.99
2018-12-17T09:37:15.659Z,99.99
2018-12-17T09:37:56.140Z,99.99
2018-12-17T09:38:36.869Z,99.99
2018-12-17T09:39:18.456Z,99.99
2018-12-17T09:39:57.860Z,99.99
2018-12-17T09:40:38.226Z,99.99
2018-12-17T09:41:18.709Z,99.99
2018-12-17T09:41:59.157Z,99.99
2018-12-17T09:42:39.650Z,99.99
2018-12-17T09:43:20.108Z,99.99
2018-12-17T09:44:00.576Z,99.99